createdAt,value
2022-08-04T00:01:28.238Z,24.15
2022-08-04T00:04:03.879Z,27.13
2022-08-04T00:06:56.872Z,25.08
2022-08-04T00:09:56.373Z,26.90
2022-08-04T00:12:31.113Z,28.10
2022-08-04T00:15:00.326Z,28.38
2022-08-04T00:17:36.519Z,27.23
2022-08-04T00:20:06.525Z,24.67
2022-08-04T00:22:35.206Z,25.38
2022-08-04T00:25:03.807Z,24.35
2022-08-04T00:27:30.954Z,25.23
2022-08-04T00:29:58.349Z,25.52
2022-08-04T00:32:34.565Z,25.60
2022-08-04T00:35:02.265Z,26.52
2022-08-04T00:37:28.999Z,28.13
2022-08-04T00:39:57.119Z,29.13
2022-08-04T00:42:58.833Z,31.25
2022-08-04T00:46:16.180Z,30.40
2022-08-04T00:49:16.864Z,28.15
2022-08-04T00:52:32.222Z,28.00
2022-08-04T00:55:16.211Z,28.15
2022-08-04T00:58:19.439Z,27.00
2022-08-04T01:01:14.306Z,30.20
2022-08-04T01:04:03.864Z,29.42
2022-08-04T01:06:56.418Z,29.88
2022-08-04T01:09:54.402Z,31.52
2022-08-04T01:12:50.924Z,29.15
2022-08-04T01:15:59.746Z,28.27
2022-08-04T01:18:33.439Z,26.73
2022-08-04T01:21:30.620Z,27.02
2022-08-04T01:24:25.291Z,26.25
2022-08-04T01:27:08.947Z,24.20
2022-08-04T01:29:49.161Z,25.25
2022-08-04T01:32:37.654Z,27.27
2022-08-04T01:35:04.412Z,25.50
2022-08-04T01:37:49.600Z,27.48
2022-08-04T01:40:17.041Z,29.20
2022-08-04T01:42:45.609Z,26.00
2022-08-04T01:45:13.867Z,25.63
2022-08-04T01:47:51.142Z,24.60
2022-08-04T01:50:18.184Z,26.15
2022-08-04T01:52:50.765Z,25.08
2022-08-04T01:55:18.558Z,24.83
2022-08-04T01:57:49.011Z,24.60
2022-08-04T02:00:21.737Z,25.90
2022-08-04T02:02:50.374Z,24.50
2022-08-04T02:05:19.312Z,24.92
2022-08-04T02:08:31.641Z,25.02
2022-08-04T02:11:20.323Z,26.13
2022-08-04T02:13:57.123Z,26.42
2022-08-04T02:16:42.161Z,25.70
2022-08-04T02:19:32.407Z,27.55
2022-08-04T02:22:13.156Z,26.10
2022-08-04T02:25:05.580Z,26.33
2022-08-04T02:28:04.034Z,28.27
2022-08-04T02:31:01.202Z,27.30
2022-08-04T02:33:51.620Z,32.22
2022-08-04T02:36:27.720Z,32.08
2022-08-04T02:39:01.235Z,30.95
2022-08-04T02:41:30.458Z,30.67
2022-08-04T02:44:01.854Z,31.42
2022-08-04T02:46:30.721Z,32.33
2022-08-04T02:48:58.133Z,32.05
2022-08-04T02:51:30.341Z,32.47
2022-08-04T02:53:58.902Z,31.70
2022-08-04T02:56:30.103Z,30.30
2022-08-04T02:59:09.285Z,29.90
2022-08-04T03:01:36.354Z,29.50
2022-08-04T03:04:36.458Z,32.10
2022-08-04T03:07:39.292Z,31.58
2022-08-04T03:10:21.277Z,33.92
2022-08-04T03:13:06.361Z,32.33
2022-08-04T03:16:05.750Z,32.55
2022-08-04T03:18:58.590Z,33.45
2022-08-04T03:21:43.340Z,32.42
2022-08-04T03:24:40.902Z,34.80
2022-08-04T03:27:32.457Z,31.30
2022-08-04T03:30:08.233Z,32.90
2022-08-04T03:32:59.795Z,34.72
2022-08-04T03:35:52.134Z,34.33
2022-08-04T03:38:55.649Z,33.28
2022-08-04T03:41:51.809Z,35.13
2022-08-04T03:45:23.746Z,34.60
2022-08-04T03:47:57.013Z,36.90
2022-08-04T03:51:10.668Z,36.83
2022-08-04T03:54:11.324Z,36.13
2022-08-04T03:56:58.399Z,37.20
2022-08-04T03:59:41.985Z,35.60
2022-08-04T04:02:36.308Z,34.95
2022-08-04T04:05:08.993Z,34.70
2022-08-04T04:08:07.259Z,34.55
2022-08-04T04:10:49.549Z,35.08
2022-08-04T04:13:30.673Z,36.67
2022-08-04T04:16:34.320Z,34.55
2022-08-04T04:19:19.209Z,32.28
2022-08-04T04:22:21.796Z,32.28
2022-08-04T04:25:12.565Z,33.15
2022-08-04T04:28:44.525Z,32.63
2022-08-04T04:31:34.449Z,31.10
2022-08-04T04:34:28.044Z,30.67
2022-08-04T04:37:26.530Z,30.42
2022-08-04T04:40:11.461Z,30.85
2022-08-04T04:43:09.719Z,28.60
2022-08-04T04:46:10.713Z,26.88
2022-08-04T04:48:58.522Z,25.42
2022-08-04T04:51:49.177Z,23.08
2022-08-04T04:54:33.106Z,20.17
2022-08-04T04:57:16.016Z,21.13
2022-08-04T04:59:59.641Z,19.08
2022-08-04T05:02:45.387Z,18.75
2022-08-04T05:05:41.661Z,15.40
2022-08-04T05:08:43.092Z,14.75
2022-08-04T05:11:30.930Z,14.38
2022-08-04T05:14:37.361Z,14.45
2022-08-04T05:16:58.391Z,12.82
2022-08-04T05:19:58.385Z,12.20
2022-08-04T05:22:50.084Z,12.23
2022-08-04T05:25:24.883Z,10.65
2022-08-04T05:28:00.875Z,10.85
2022-08-04T05:30:31.367Z,10.73
2022-08-04T05:33:04.031Z,10.02
2022-08-04T05:35:47.917Z,9.20
2022-08-04T05:38:34.635Z,9.70
2022-08-04T05:41:02.549Z,9.15
2022-08-04T05:43:29.963Z,9.35
2022-08-04T05:45:57.825Z,8.80
2022-08-04T05:48:25.703Z,7.85
2022-08-04T05:50:55.567Z,7.97
2022-08-04T05:53:26.289Z,8.07
2022-08-04T05:55:58.502Z,7.22
2022-08-04T05:58:29.491Z,7.30
2022-08-04T06:00:56.937Z,7.10
2022-08-04T06:03:25.499Z,6.75
2022-08-04T06:05:52.664Z,6.10
2022-08-04T06:08:19.449Z,6.32
2022-08-04T06:10:48.149Z,6.57
2022-08-04T06:13:47.844Z,5.90
2022-08-04T06:16:15.677Z,5.38
2022-08-04T06:20:00.445Z,5.50
2022-08-04T06:21:48.901Z,5.05
2022-08-04T06:24:19.699Z,4.57
2022-08-04T06:26:49.314Z,4.97
2022-08-04T06:29:35.230Z,4.75
2022-08-04T06:32:31.425Z,4.65
2022-08-04T06:35:02.116Z,3.85
2022-08-04T06:37:42.562Z,4.07
2022-08-04T06:40:31.513Z,3.95
2022-08-04T06:43:03.762Z,3.00
2022-08-04T06:45:31.983Z,3.75
2022-08-04T06:47:59.928Z,3.97
2022-08-04T06:51:26.831Z,4.10
2022-08-04T06:53:14.667Z,3.45
2022-08-04T06:55:43.732Z,3.80
2022-08-04T06:58:11.113Z,3.05
2022-08-04T07:00:40.462Z,2.97
2022-08-04T07:03:07.836Z,3.00
2022-08-04T07:05:35.938Z,3.08
2022-08-04T07:08:03.797Z,3.40
2022-08-04T07:10:31.555Z,3.20
2022-08-04T07:12:59.893Z,2.80
2022-08-04T07:15:28.339Z,2.88
2022-08-04T07:18:00.211Z,3.05
2022-08-04T07:20:35.811Z,2.55
2022-08-04T07:23:17.184Z,2.95
2022-08-04T07:26:11.337Z,2.50
2022-08-04T07:28:31.440Z,2.33
2022-08-04T07:30:58.972Z,2.50
2022-08-04T07:33:26.058Z,2.40
2022-08-04T07:36:05.545Z,2.25
2022-08-04T07:38:51.397Z,2.55
2022-08-04T07:41:41.414Z,2.50
2022-08-04T07:44:10.334Z,2.00
2022-08-04T07:46:37.394Z,2.38
2022-08-04T07:49:05.175Z,2.10
2022-08-04T07:51:35.309Z,2.03
2022-08-04T07:54:03.942Z,2.47
2022-08-04T07:56:32.128Z,2.78
2022-08-04T07:59:00.031Z,1.52
2022-08-04T08:01:27.283Z,2.45
2022-08-04T08:03:57.006Z,2.42
2022-08-04T08:06:32.648Z,2.67
2022-08-04T08:09:13.250Z,2.33
2022-08-04T08:12:38.002Z,2.17
2022-08-04T08:14:30.450Z,1.85
2022-08-04T08:16:59.238Z,2.30
2022-08-04T08:19:25.861Z,2.33
2022-08-04T08:21:58.647Z,2.20
2022-08-04T08:24:28.202Z,2.00
2022-08-04T08:26:55.963Z,1.85
2022-08-04T08:29:23.239Z,1.85
2022-08-04T08:31:57.320Z,2.25
2022-08-04T08:34:28.273Z,2.00
2022-08-04T08:37:09.677Z,2.35
2022-08-04T08:39:42.677Z,1.75
2022-08-04T08:42:38.340Z,2.28
2022-08-04T08:45:31.778Z,2.30
2022-08-04T08:48:16.434Z,1.90
2022-08-04T08:51:33.835Z,2.40
2022-08-04T08:54:28.829Z,1.92
2022-08-04T08:57:19.100Z,2.30
2022-08-04T09:00:16.821Z,2.03
2022-08-04T09:03:04.838Z,1.90
2022-08-04T09:06:11.048Z,2.13
2022-08-04T09:09:04.037Z,2.10
2022-08-04T09:11:43.936Z,2.28
2022-08-04T09:14:35.257Z,2.05
2022-08-04T09:17:05.632Z,1.95
2022-08-04T09:20:02.769Z,2.25
2022-08-04T09:22:43.645Z,1.80
2022-08-04T09:25:24.902Z,1.92
2022-08-04T09:27:52.852Z,2.28
2022-08-04T09:30:29.146Z,2.05
2022-08-04T09:32:58.651Z,1.80
2022-08-04T09:35:53.680Z,1.85
2022-08-04T09:38:36.002Z,1.60
2022-08-04T09:41:48.162Z,2.20
2022-08-04T09:45:04.941Z,1.95
2022-08-04T09:47:47.522Z,1.92
2022-08-04T09:50:37.271Z,2.45
2022-08-04T09:53:22.899Z,2.00
2022-08-04T09:56:08.391Z,2.17
2022-08-04T09:58:55.982Z,2.00
2022-08-04T10:01:25.818Z,2.28
2022-08-04T10:03:56.439Z,2.22
2022-08-04T10:06:44.769Z,2.22
2022-08-04T10:09:49.307Z,2.00
2022-08-04T10:12:25.278Z,2.03
2022-08-04T10:14:57.718Z,1.90
2022-08-04T10:17:51.871Z,2.03
2022-08-04T10:20:56.758Z,2.03
2022-08-04T10:23:55.644Z,2.00
2022-08-04T10:26:45.490Z,1.95
2022-08-04T10:29:16.483Z,2.33
2022-08-04T10:31:49.308Z,1.90
2022-08-04T10:34:26.156Z,2.03
2022-08-04T10:37:09.137Z,2.00
2022-08-04T10:40:17.171Z,2.25
2022-08-04T10:43:01.807Z,1.90
2022-08-04T10:45:45.068Z,2.47
2022-08-04T10:48:45.830Z,2.03
2022-08-04T10:51:30.202Z,2.20
2022-08-04T10:54:47.891Z,2.00
2022-08-04T10:57:36.887Z,1.90
2022-08-04T11:00:10.597Z,2.08
2022-08-04T11:02:46.851Z,2.00
2022-08-04T11:05:22.433Z,2.10
2022-08-04T11:07:53.168Z,2.22
2022-08-04T11:10:23.055Z,2.10
2022-08-04T11:12:58.188Z,2.08
2022-08-04T11:15:36.695Z,2.17
2022-08-04T11:18:16.290Z,2.35
2022-08-04T11:20:50.532Z,2.20
2022-08-04T11:23:23.586Z,2.10
2022-08-04T11:25:58.957Z,1.75
2022-08-04T11:28:52.613Z,2.00
2022-08-04T11:31:35.629Z,1.95
2022-08-04T11:34:19.293Z,2.00
2022-08-04T11:37:18.425Z,1.92
2022-08-04T11:39:54.014Z,2.20
2022-08-04T11:42:28.990Z,2.22
2022-08-04T11:44:59.773Z,2.10
2022-08-04T11:47:31.059Z,2.30
2022-08-04T11:50:06.629Z,2.40
2022-08-04T11:52:35.490Z,2.20
2022-08-04T11:55:10.104Z,2.30
2022-08-04T11:57:37.327Z,2.20
2022-08-04T12:00:14.449Z,2.38
2022-08-04T12:03:09.896Z,1.98
2022-08-04T12:05:46.897Z,2.10
2022-08-04T12:09:08.480Z,2.00
2022-08-04T12:12:20.911Z,1.77
2022-08-04T12:15:05.665Z,1.95
2022-08-04T12:17:53.192Z,1.92
2022-08-04T12:20:31.365Z,2.03
2022-08-04T12:23:03.714Z,1.75
2022-08-04T12:25:44.436Z,1.80
2022-08-04T12:28:52.519Z,1.77
2022-08-04T12:31:45.303Z,1.60
2022-08-04T12:34:43.561Z,1.60
2022-08-04T12:37:34.013Z,2.00
2022-08-04T12:40:28.560Z,1.95
2022-08-04T12:43:01.956Z,1.83
2022-08-04T12:45:30.157Z,1.73
2022-08-04T12:47:58.850Z,1.98
2022-08-04T12:50:25.960Z,2.03
2022-08-04T12:53:02.130Z,1.80
2022-08-04T12:55:33.224Z,2.30
2022-08-04T12:58:02.749Z,1.90
2022-08-04T13:00:41.337Z,1.52
2022-08-04T13:03:14.744Z,2.00
2022-08-04T13:05:42.811Z,1.63
2022-08-04T13:08:11.712Z,1.67
2022-08-04T13:10:41.689Z,1.70
2022-08-04T13:13:16.681Z,1.75
2022-08-04T13:15:47.390Z,1.90
2022-08-04T13:18:29.313Z,2.20
2022-08-04T13:21:19.495Z,2.25
2022-08-04T13:24:19.661Z,2.30
2022-08-04T13:26:54.362Z,2.88
2022-08-04T13:29:58.280Z,2.55
2022-08-04T13:32:18.001Z,2.70
2022-08-04T13:34:52.663Z,3.17
2022-08-04T13:37:23.170Z,2.60
2022-08-04T13:39:55.702Z,3.47
2022-08-04T13:42:24.210Z,2.80
2022-08-04T13:44:56.530Z,3.03
2022-08-04T13:47:35.428Z,2.92
2022-08-04T13:50:12.094Z,3.28
2022-08-04T13:52:41.768Z,3.30
2022-08-04T13:55:18.344Z,3.63
2022-08-04T13:57:47.004Z,3.40
2022-08-04T14:00:16.772Z,3.65
2022-08-04T14:03:19.003Z,3.40
2022-08-04T14:06:16.121Z,3.38
2022-08-04T14:08:47.629Z,3.47
2022-08-04T14:12:01.481Z,3.55
2022-08-04T14:14:18.473Z,3.13
2022-08-04T14:16:58.171Z,3.97
2022-08-04T14:19:30.647Z,4.30
2022-08-04T14:22:02.725Z,4.90
2022-08-04T14:24:29.608Z,4.68
2022-08-04T14:27:00.536Z,5.18
2022-08-04T14:29:37.607Z,4.63
2022-08-04T14:32:20.418Z,4.75
2022-08-04T14:34:50.966Z,4.13
2022-08-04T14:37:20.504Z,3.33
2022-08-04T14:40:17.368Z,3.58
2022-08-04T14:42:55.712Z,3.10
2022-08-04T14:45:54.051Z,4.45
2022-08-04T14:48:22.435Z,5.45
2022-08-04T14:50:50.703Z,5.30
2022-08-04T14:53:18.979Z,5.30
2022-08-04T14:55:48.060Z,4.90
2022-08-04T14:58:35.854Z,4.50
2022-08-04T15:01:10.513Z,4.45
2022-08-04T15:03:50.133Z,4.22
2022-08-04T15:06:22.651Z,4.80
2022-08-04T15:08:51.444Z,3.78
2022-08-04T15:11:23.269Z,4.18
2022-08-04T15:13:54.643Z,4.20
2022-08-04T15:16:23.256Z,4.22
2022-08-04T15:18:51.118Z,3.33
2022-08-04T15:21:22.349Z,3.90
2022-08-04T15:23:50.944Z,3.80
2022-08-04T15:26:51.953Z,3.80
2022-08-04T15:30:00.106Z,3.50
2022-08-04T15:32:32.137Z,3.47
2022-08-04T15:35:06.991Z,3.63
2022-08-04T15:37:49.721Z,3.90
2022-08-04T15:40:33.645Z,4.30
2022-08-04T15:43:43.098Z,3.60
2022-08-04T15:46:43.040Z,3.13
2022-08-04T15:49:18.418Z,3.03
2022-08-04T15:51:45.154Z,3.85
2022-08-04T15:54:28.093Z,3.83
2022-08-04T15:57:02.333Z,3.38
2022-08-04T15:59:57.539Z,3.65
2022-08-04T16:02:38.494Z,2.88
2022-08-04T16:05:18.138Z,2.28
2022-08-04T16:08:13.306Z,2.50
2022-08-04T16:10:43.117Z,2.28
2022-08-04T16:13:25.005Z,2.75
2022-08-04T16:16:04.821Z,2.28
2022-08-04T16:18:31.583Z,2.92
2022-08-04T16:21:22.233Z,2.72
2022-08-04T16:24:02.151Z,2.88
2022-08-04T16:26:45.416Z,3.28
2022-08-04T16:29:34.441Z,2.72
2022-08-04T16:32:21.978Z,2.70
2022-08-04T16:34:58.776Z,2.75
2022-08-04T16:37:37.784Z,2.78
2022-08-04T16:40:33.745Z,2.75
2022-08-04T16:43:06.756Z,2.75
2022-08-04T16:45:40.353Z,2.50
2022-08-04T16:48:08.226Z,2.50
2022-08-04T16:50:49.307Z,2.40
2022-08-04T16:53:52.513Z,2.58
2022-08-04T16:56:06.692Z,2.50
2022-08-04T16:58:35.637Z,2.85
2022-08-04T17:01:27.662Z,2.50
2022-08-04T17:04:04.666Z,2.42
2022-08-04T17:06:36.283Z,2.90
2022-08-04T17:09:10.013Z,2.75
2022-08-04T17:11:36.611Z,2.90
2022-08-04T17:14:05.674Z,2.97
2022-08-04T17:16:35.534Z,3.10
2022-08-04T17:19:03.224Z,2.55
2022-08-04T17:21:33.113Z,3.00
2022-08-04T17:24:13.427Z,2.85
2022-08-04T17:26:51.843Z,3.00
2022-08-04T17:29:44.429Z,2.70
2022-08-04T17:32:20.770Z,2.25
2022-08-04T17:34:53.361Z,2.53
2022-08-04T17:37:53.053Z,2.17
2022-08-04T17:40:11.366Z,1.90
2022-08-04T17:42:39.791Z,2.03
2022-08-04T17:45:39.956Z,1.90
2022-08-04T17:47:55.764Z,2.00
2022-08-04T17:50:34.605Z,2.30
2022-08-04T17:53:11.134Z,2.05
2022-08-04T17:55:39.563Z,1.55
2022-08-04T17:58:26.992Z,2.50
2022-08-04T18:01:24.205Z,1.95
2022-08-04T18:03:53.471Z,2.20
2022-08-04T18:06:23.024Z,2.53
2022-08-04T18:11:41.742Z,2.90
2022-08-04T18:14:10.102Z,3.15
2022-08-04T18:16:46.233Z,2.80
2022-08-04T18:19:15.136Z,2.63
2022-08-04T18:21:46.566Z,3.53
2022-08-04T18:24:35.991Z,4.50
2022-08-04T18:27:21.705Z,4.78
2022-08-04T18:30:14.458Z,4.90
2022-08-04T18:32:35.872Z,4.70
2022-08-04T18:35:17.065Z,5.68
2022-08-04T18:38:06.562Z,5.55
2022-08-04T18:40:40.600Z,5.10
2022-08-04T18:43:17.008Z,5.82
2022-08-04T18:45:55.455Z,5.32
2022-08-04T18:48:22.332Z,5.03
2022-08-04T18:51:22.771Z,5.10
2022-08-04T18:53:58.348Z,5.63
2022-08-04T18:56:30.064Z,5.38
2022-08-04T18:59:10.251Z,5.70
2022-08-04T19:02:13.728Z,6.75
2022-08-04T19:04:33.908Z,7.35
2022-08-04T19:07:28.905Z,7.22
2022-08-04T19:09:53.842Z,7.13
2022-08-04T19:12:26.816Z,7.50
2022-08-04T19:14:58.244Z,7.68
2022-08-04T19:17:56.763Z,7.72
2022-08-04T19:20:24.285Z,7.65
2022-08-04T19:24:10.895Z,8.38
2022-08-04T19:26:02.300Z,9.10
2022-08-04T19:28:28.147Z,9.20
2022-08-04T19:30:58.679Z,9.57
2022-08-04T19:33:25.679Z,10.65
2022-08-04T19:36:12.390Z,11.00
2022-08-04T19:38:39.159Z,11.95
2022-08-04T19:41:14.597Z,11.20
2022-08-04T19:43:43.926Z,11.65
2022-08-04T19:46:12.207Z,11.20
2022-08-04T19:48:39.464Z,12.05
2022-08-04T19:51:06.188Z,13.43
2022-08-04T19:53:37.636Z,12.45
2022-08-04T19:56:09.601Z,11.65
2022-08-04T19:58:38.545Z,11.68
2022-08-04T20:01:05.350Z,11.25
2022-08-04T20:04:08.028Z,12.02
2022-08-04T20:06:37.268Z,11.70
2022-08-04T20:09:03.944Z,11.55
2022-08-04T20:11:50.723Z,11.65
2022-08-04T20:14:17.794Z,11.80
2022-08-04T20:16:46.488Z,12.82
2022-08-04T20:19:14.154Z,11.27
2022-08-04T20:21:54.948Z,11.70
2022-08-04T20:24:38.615Z,11.40
2022-08-04T20:29:56.019Z,12.13
2022-08-04T20:32:25.372Z,11.35
2022-08-04T20:34:53.612Z,10.88
2022-08-04T20:37:23.270Z,11.88
2022-08-04T20:39:55.543Z,11.38
2022-08-04T20:42:27.762Z,11.75
2022-08-04T20:45:01.411Z,12.25
2022-08-04T20:47:34.964Z,11.88
2022-08-04T20:50:09.014Z,12.23
2022-08-04T20:52:37.202Z,11.80
2022-08-04T20:55:05.560Z,12.32
2022-08-04T20:57:49.530Z,11.40
2022-08-04T21:00:26.568Z,11.73
2022-08-04T21:02:58.618Z,12.75
2022-08-04T21:05:26.423Z,12.73
2022-08-04T21:07:56.658Z,13.35
2022-08-04T21:10:25.010Z,13.48
2022-08-04T21:12:52.891Z,13.18
2022-08-04T21:15:24.936Z,12.68
2022-08-04T21:17:58.678Z,13.65
2022-08-04T21:20:30.145Z,12.23
2022-08-04T21:23:02.363Z,13.63
2022-08-04T21:25:32.225Z,12.95
2022-08-04T21:28:04.240Z,13.10
2022-08-04T21:30:37.034Z,14.13
2022-08-04T21:33:18.497Z,12.77
2022-08-04T21:35:46.620Z,12.30
2022-08-04T21:38:17.197Z,14.70
2022-08-04T21:40:55.932Z,12.95
2022-08-04T21:43:27.251Z,13.68
2022-08-04T21:45:56.906Z,12.77
2022-08-04T21:48:31.499Z,13.07
2022-08-04T21:51:57.065Z,13.82
2022-08-04T21:54:05.687Z,11.63
2022-08-04T21:56:33.185Z,12.52
2022-08-04T21:59:02.604Z,12.50
2022-08-04T22:01:52.432Z,12.32
2022-08-04T22:04:20.739Z,11.95
2022-08-04T22:06:47.763Z,11.15
2022-08-04T22:09:21.910Z,10.88
2022-08-04T22:11:50.701Z,10.15
2022-08-04T22:14:29.529Z,11.27
2022-08-04T22:17:02.282Z,9.85
2022-08-04T22:19:50.725Z,10.43
2022-08-04T22:22:24.669Z,10.82
2022-08-04T22:24:53.638Z,9.52
2022-08-04T22:27:39.004Z,9.35
2022-08-04T22:30:17.453Z,8.43
2022-08-04T22:32:46.509Z,8.10
2022-08-04T22:35:36.605Z,8.07
2022-08-04T22:38:06.691Z,7.65
2022-08-04T22:40:41.990Z,7.30
2022-08-04T22:43:31.166Z,7.20
2022-08-04T22:46:02.008Z,7.18
2022-08-04T22:48:31.987Z,6.65
2022-08-04T22:50:59.687Z,6.30
2022-08-04T22:53:26.434Z,6.53
2022-08-04T22:56:06.930Z,6.35
2022-08-04T22:58:45.050Z,5.80
2022-08-04T23:01:17.003Z,6.30
2022-08-04T23:03:55.514Z,5.50
2022-08-04T23:06:24.280Z,6.03
2022-08-04T23:08:51.253Z,6.18
2022-08-04T23:11:17.879Z,6.38
2022-08-04T23:13:45.372Z,5.30
2022-08-04T23:16:12.363Z,5.90
2022-08-04T23:18:42.061Z,5.78
2022-08-04T23:21:10.967Z,5.18
2022-08-04T23:23:55.664Z,5.25
2022-08-04T23:26:27.999Z,4.53
2022-08-04T23:28:55.997Z,5.18
2022-08-04T23:31:23.413Z,4.97
2022-08-04T23:33:51.754Z,4.75
2022-08-04T23:36:30.098Z,5.10
2022-08-04T23:39:04.236Z,4.45
2022-08-04T23:41:50.903Z,4.05
2022-08-04T23:44:25.286Z,4.13
2022-08-04T23:47:03.241Z,4.47
2022-08-04T23:49:43.905Z,4.05
2022-08-04T23:52:23.090Z,4.32
2022-08-04T23:54:54.765Z,4.28
2022-08-04T23:57:22.067Z,3.95
2022-08-04T23:59:54.378Z,3.90
